sensor_id;sensor_type;location;lat;lon;timestamp;temperature;humidity
3136;DHT22;1578;47.658;9.922;2023-04-24T00:01:16;9.50;98.20
3136;DHT22;1578;47.658;9.922;2023-04-24T00:03:42;9.50;97.50
3136;DHT22;1578;47.658;9.922;2023-04-24T00:06:08;9.50;98.60
3136;DHT22;1578;47.658;9.922;2023-04-24T00:08:36;9.50;98.30
3136;DHT22;1578;47.658;9.922;2023-04-24T00:11:02;9.50;97.90
3136;DHT22;1578;47.658;9.922;2023-04-24T00:13:28;9.40;98.40
3136;DHT22;1578;47.658;9.922;2023-04-24T00:15:55;9.50;98.60
3136;DHT22;1578;47.658;9.922;2023-04-24T00:18:21;9.50;98.50
3136;DHT22;1578;47.658;9.922;2023-04-24T00:20:47;9.50;97.70
3136;DHT22;1578;47.658;9.922;2023-04-24T00:23:12;9.50;96.80
3136;DHT22;1578;47.658;9.922;2023-04-24T00:25:38;9.50;97.40
3136;DHT22;1578;47.658;9.922;2023-04-24T00:28:05;9.50;97.10
3136;DHT22;1578;47.658;9.922;2023-04-24T00:30:31;9.40;97.20
3136;DHT22;1578;47.658;9.922;2023-04-24T00:32:57;9.40;97.50
3136;DHT22;1578;47.658;9.922;2023-04-24T00:35:23;9.50;98.00
3136;DHT22;1578;47.658;9.922;2023-04-24T00:37:49;9.50;97.70
3136;DHT22;1578;47.658;9.922;2023-04-24T00:40:16;9.60;97.70
3136;DHT22;1578;47.658;9.922;2023-04-24T00:42:41;9.50;97.20
3136;DHT22;1578;47.658;9.922;2023-04-24T00:45:08;9.40;98.10
3136;DHT22;1578;47.658;9.922;2023-04-24T00:47:34;9.50;98.50
3136;DHT22;1578;47.658;9.922;2023-04-24T00:50:04;9.40;98.20
3136;DHT22;1578;47.658;9.922;2023-04-24T00:52:30;9.30;98.70
3136;DHT22;1578;47.658;9.922;2023-04-24T00:54:58;9.30;99.70
3136;DHT22;1578;47.658;9.922;2023-04-24T00:57:24;9.40;99.40
3136;DHT22;1578;47.658;9.922;2023-04-24T00:59:51;9.30;99.60
3136;DHT22;1578;47.658;9.922;2023-04-24T01:02:17;9.50;99.00
3136;DHT22;1578;47.658;9.922;2023-04-24T01:04:43;9.50;98.60
3136;DHT22;1578;47.658;9.922;2023-04-24T01:07:09;9.70;97.40
3136;DHT22;1578;47.658;9.922;2023-04-24T01:09:38;9.60;97.20
3136;DHT22;1578;47.658;9.922;2023-04-24T01:12:05;9.50;97.80
3136;DHT22;1578;47.658;9.922;2023-04-24T01:14:31;9.40;98.60
3136;DHT22;1578;47.658;9.922;2023-04-24T01:16:56;9.40;98.90
3136;DHT22;1578;47.658;9.922;2023-04-24T01:19:23;9.40;98.80
3136;DHT22;1578;47.658;9.922;2023-04-24T01:21:51;9.30;99.50
3136;DHT22;1578;47.658;9.922;2023-04-24T01:24:18;9.30;99.80
3136;DHT22;1578;47.658;9.922;2023-04-24T01:26:45;9.30;99.90
3136;DHT22;1578;47.658;9.922;2023-04-24T01:29:11;9.40;99.40
3136;DHT22;1578;47.658;9.922;2023-04-24T01:31:37;9.30;99.70
3136;DHT22;1578;47.658;9.922;2023-04-24T01:34:03;9.30;99.60
3136;DHT22;1578;47.658;9.922;2023-04-24T01:36:30;9.30;99.90
3136;DHT22;1578;47.658;9.922;2023-04-24T01:38:59;9.40;99.60
3136;DHT22;1578;47.658;9.922;2023-04-24T01:41:25;9.40;99.10
3136;DHT22;1578;47.658;9.922;2023-04-24T01:43:51;9.20;99.00
3136;DHT22;1578;47.658;9.922;2023-04-24T01:46:17;9.30;99.90
3136;DHT22;1578;47.658;9.922;2023-04-24T01:48:44;9.20;99.10
3136;DHT22;1578;47.658;9.922;2023-04-24T01:51:10;9.10;99.90
3136;DHT22;1578;47.658;9.922;2023-04-24T01:53:36;9.10;99.90
3136;DHT22;1578;47.658;9.922;2023-04-24T01:56:01;9.10;99.90
3136;DHT22;1578;47.658;9.922;2023-04-24T01:58:27;9.10;99.90
3136;DHT22;1578;47.658;9.922;2023-04-24T02:00:56;9.20;99.00
3136;DHT22;1578;47.658;9.922;2023-04-24T02:03:22;9.30;99.40
3136;DHT22;1578;47.658;9.922;2023-04-24T02:05:47;9.20;99.40
3136;DHT22;1578;47.658;9.922;2023-04-24T02:08:13;9.20;99.50
3136;DHT22;1578;47.658;9.922;2023-04-24T02:10:38;9.20;99.00
3136;DHT22;1578;47.658;9.922;2023-04-24T02:13:04;9.20;98.40
3136;DHT22;1578;47.658;9.922;2023-04-24T02:15:30;9.10;98.70
3136;DHT22;1578;47.658;9.922;2023-04-24T02:17:55;9.20;98.40
3136;DHT22;1578;47.658;9.922;2023-04-24T02:20:21;9.20;97.60
3136;DHT22;1578;47.658;9.922;2023-04-24T02:22:47;9.20;98.50
3136;DHT22;1578;47.658;9.922;2023-04-24T02:25:12;9.30;98.30
3136;DHT22;1578;47.658;9.922;2023-04-24T02:27:38;9.30;97.40
3136;DHT22;1578;47.658;9.922;2023-04-24T02:30:04;9.20;97.50
3136;DHT22;1578;47.658;9.922;2023-04-24T02:32:30;9.20;98.10
3136;DHT22;1578;47.658;9.922;2023-04-24T02:34:56;9.20;98.20
3136;DHT22;1578;47.658;9.922;2023-04-24T02:37:21;9.10;97.70
3136;DHT22;1578;47.658;9.922;2023-04-24T02:39:47;9.20;97.80
3136;DHT22;1578;47.658;9.922;2023-04-24T02:42:13;9.10;97.80
3136;DHT22;1578;47.658;9.922;2023-04-24T02:44:39;9.00;98.40
3136;DHT22;1578;47.658;9.922;2023-04-24T02:47:05;9.00;99.40
3136;DHT22;1578;47.658;9.922;2023-04-24T02:49:31;9.00;98.10
3136;DHT22;1578;47.658;9.922;2023-04-24T02:51:56;9.00;98.10
3136;DHT22;1578;47.658;9.922;2023-04-24T02:54:22;9.10;98.10
3136;DHT22;1578;47.658;9.922;2023-04-24T02:56:47;9.00;98.20
3136;DHT22;1578;47.658;9.922;2023-04-24T02:59:13;9.00;98.70
3136;DHT22;1578;47.658;9.922;2023-04-24T03:01:39;9.00;99.00
3136;DHT22;1578;47.658;9.922;2023-04-24T03:04:04;9.10;99.20
3136;DHT22;1578;47.658;9.922;2023-04-24T03:06:30;9.10;98.80
3136;DHT22;1578;47.658;9.922;2023-04-24T03:08:58;9.20;98.50
3136;DHT22;1578;47.658;9.922;2023-04-24T03:11:23;9.20;98.50
3136;DHT22;1578;47.658;9.922;2023-04-24T03:13:49;9.30;98.00
3136;DHT22;1578;47.658;9.922;2023-04-24T03:16:15;9.30;98.10
3136;DHT22;1578;47.658;9.922;2023-04-24T03:18:40;9.30;97.40
3136;DHT22;1578;47.658;9.922;2023-04-24T03:21:06;9.30;97.60
3136;DHT22;1578;47.658;9.922;2023-04-24T03:23:31;9.30;97.20
3136;DHT22;1578;47.658;9.922;2023-04-24T03:25:57;9.30;97.20
3136;DHT22;1578;47.658;9.922;2023-04-24T03:28:22;9.30;97.30
3136;DHT22;1578;47.658;9.922;2023-04-24T03:30:48;9.10;96.90
3136;DHT22;1578;47.658;9.922;2023-04-24T03:33:14;9.10;95.90
3136;DHT22;1578;47.658;9.922;2023-04-24T03:35:40;9.20;94.50
3136;DHT22;1578;47.658;9.922;2023-04-24T03:38:06;9.20;94.30
3136;DHT22;1578;47.658;9.922;2023-04-24T03:40:32;9.10;92.80
3136;DHT22;1578;47.658;9.922;2023-04-24T03:42:59;9.00;93.20
3136;DHT22;1578;47.658;9.922;2023-04-24T03:45:24;8.90;94.20
3136;DHT22;1578;47.658;9.922;2023-04-24T03:47:50;8.80;95.80
3136;DHT22;1578;47.658;9.922;2023-04-24T03:50:15;8.80;96.10
3136;DHT22;1578;47.658;9.922;2023-04-24T03:52:41;8.80;94.60
3136;DHT22;1578;47.658;9.922;2023-04-24T03:55:07;8.80;94.80
3136;DHT22;1578;47.658;9.922;2023-04-24T03:57:32;8.70;95.10
3136;DHT22;1578;47.658;9.922;2023-04-24T03:59:58;8.70;96.20
3136;DHT22;1578;47.658;9.922;2023-04-24T04:02:23;8.70;97.10
3136;DHT22;1578;47.658;9.922;2023-04-24T04:04:49;8.70;97.10
3136;DHT22;1578;47.658;9.922;2023-04-24T04:07:15;8.80;97.20
3136;DHT22;1578;47.658;9.922;2023-04-24T04:09:40;8.80;98.10
3136;DHT22;1578;47.658;9.922;2023-04-24T04:12:06;8.80;98.50
3136;DHT22;1578;47.658;9.922;2023-04-24T04:14:31;8.80;98.30
3136;DHT22;1578;47.658;9.922;2023-04-24T04:16:57;8.80;98.70
3136;DHT22;1578;47.658;9.922;2023-04-24T04:19:22;8.80;98.30
3136;DHT22;1578;47.658;9.922;2023-04-24T04:21:48;8.70;99.00
3136;DHT22;1578;47.658;9.922;2023-04-24T04:24:18;8.80;99.40
3136;DHT22;1578;47.658;9.922;2023-04-24T04:26:46;8.90;99.00
3136;DHT22;1578;47.658;9.922;2023-04-24T04:29:13;8.90;98.70
3136;DHT22;1578;47.658;9.922;2023-04-24T04:31:39;8.90;98.60
3136;DHT22;1578;47.658;9.922;2023-04-24T04:34:04;8.90;98.50
3136;DHT22;1578;47.658;9.922;2023-04-24T04:36:30;8.90;98.20
3136;DHT22;1578;47.658;9.922;2023-04-24T04:38:55;8.90;98.50
3136;DHT22;1578;47.658;9.922;2023-04-24T04:41:22;8.90;98.70
3136;DHT22;1578;47.658;9.922;2023-04-24T04:43:48;8.80;99.20
3136;DHT22;1578;47.658;9.922;2023-04-24T04:46:15;8.80;99.10
3136;DHT22;1578;47.658;9.922;2023-04-24T04:48:41;8.80;99.10
3136;DHT22;1578;47.658;9.922;2023-04-24T04:51:06;8.90;99.40
3136;DHT22;1578;47.658;9.922;2023-04-24T04:53:32;8.90;98.80
3136;DHT22;1578;47.658;9.922;2023-04-24T04:55:58;9.00;98.90
3136;DHT22;1578;47.658;9.922;2023-04-24T04:58:23;9.10;98.50
3136;DHT22;1578;47.658;9.922;2023-04-24T05:00:49;9.10;98.00
3136;DHT22;1578;47.658;9.922;2023-04-24T05:03:14;9.10;97.50
3136;DHT22;1578;47.658;9.922;2023-04-24T05:05:40;9.10;97.50
3136;DHT22;1578;47.658;9.922;2023-04-24T05:08:07;9.10;98.10
3136;DHT22;1578;47.658;9.922;2023-04-24T05:10:33;9.10;98.10
3136;DHT22;1578;47.658;9.922;2023-04-24T05:12:58;9.10;97.60
3136;DHT22;1578;47.658;9.922;2023-04-24T05:15:24;9.00;98.40
3136;DHT22;1578;47.658;9.922;2023-04-24T05:17:50;9.00;98.60
3136;DHT22;1578;47.658;9.922;2023-04-24T05:20:16;9.00;98.60
3136;DHT22;1578;47.658;9.922;2023-04-24T05:22:42;9.00;99.40
3136;DHT22;1578;47.658;9.922;2023-04-24T05:25:07;9.10;98.80
3136;DHT22;1578;47.658;9.922;2023-04-24T05:27:33;9.20;98.00
3136;DHT22;1578;47.658;9.922;2023-04-24T05:29:59;9.30;97.50
3136;DHT22;1578;47.658;9.922;2023-04-24T05:32:26;9.40;96.80
3136;DHT22;1578;47.658;9.922;2023-04-24T05:34:52;9.50;96.60
3136;DHT22;1578;47.658;9.922;2023-04-24T05:37:18;9.50;96.70
3136;DHT22;1578;47.658;9.922;2023-04-24T05:39:43;9.50;96.30
3136;DHT22;1578;47.658;9.922;2023-04-24T05:42:09;9.50;95.70
3136;DHT22;1578;47.658;9.922;2023-04-24T05:44:35;9.50;93.40
3136;DHT22;1578;47.658;9.922;2023-04-24T05:47:00;9.40;93.80
3136;DHT22;1578;47.658;9.922;2023-04-24T05:49:27;9.40;94.90
3136;DHT22;1578;47.658;9.922;2023-04-24T05:51:52;9.40;92.70
3136;DHT22;1578;47.658;9.922;2023-04-24T05:54:19;9.50;92.40
3136;DHT22;1578;47.658;9.922;2023-04-24T05:56:45;9.60;92.20
3136;DHT22;1578;47.658;9.922;2023-04-24T05:59:11;9.70;93.10
3136;DHT22;1578;47.658;9.922;2023-04-24T06:01:37;9.80;90.70
3136;DHT22;1578;47.658;9.922;2023-04-24T06:04:03;9.80;88.80
3136;DHT22;1578;47.658;9.922;2023-04-24T06:06:29;9.80;92.20
3136;DHT22;1578;47.658;9.922;2023-04-24T06:08:55;9.70;92.50
3136;DHT22;1578;47.658;9.922;2023-04-24T06:11:22;9.80;92.10
3136;DHT22;1578;47.658;9.922;2023-04-24T06:13:48;9.80;90.30
3136;DHT22;1578;47.658;9.922;2023-04-24T06:16:13;9.70;84.10
3136;DHT22;1578;47.658;9.922;2023-04-24T06:18:39;9.60;90.90
3136;DHT22;1578;47.658;9.922;2023-04-24T06:21:05;9.30;90.60
3136;DHT22;1578;47.658;9.922;2023-04-24T06:23:31;9.10;92.80
3136;DHT22;1578;47.658;9.922;2023-04-24T06:25:58;9.00;93.90
3136;DHT22;1578;47.658;9.922;2023-04-24T06:28:24;8.80;95.00
3136;DHT22;1578;47.658;9.922;2023-04-24T06:30:50;8.80;96.50
3136;DHT22;1578;47.658;9.922;2023-04-24T06:33:16;8.80;96.50
3136;DHT22;1578;47.658;9.922;2023-04-24T06:35:42;8.70;94.70
3136;DHT22;1578;47.658;9.922;2023-04-24T06:38:07;8.70;95.70
3136;DHT22;1578;47.658;9.922;2023-04-24T06:40:34;8.70;95.30
3136;DHT22;1578;47.658;9.922;2023-04-24T06:42:59;8.70;94.60
3136;DHT22;1578;47.658;9.922;2023-04-24T06:45:28;8.60;95.60
3136;DHT22;1578;47.658;9.922;2023-04-24T06:47:54;8.60;95.70
3136;DHT22;1578;47.658;9.922;2023-04-24T06:50:19;8.70;95.60
3136;DHT22;1578;47.658;9.922;2023-04-24T06:52:45;8.60;96.50
3136;DHT22;1578;47.658;9.922;2023-04-24T06:55:11;8.50;96.40
3136;DHT22;1578;47.658;9.922;2023-04-24T06:57:36;8.50;95.70
3136;DHT22;1578;47.658;9.922;2023-04-24T07:00:03;8.60;95.90
3136;DHT22;1578;47.658;9.922;2023-04-24T07:02:30;8.70;96.80
3136;DHT22;1578;47.658;9.922;2023-04-24T07:04:56;8.70;96.50
3136;DHT22;1578;47.658;9.922;2023-04-24T07:07:22;8.70;96.50
3136;DHT22;1578;47.658;9.922;2023-04-24T07:09:49;8.80;97.50
3136;DHT22;1578;47.658;9.922;2023-04-24T07:12:16;8.90;95.00
3136;DHT22;1578;47.658;9.922;2023-04-24T07:14:42;9.00;98.30
3136;DHT22;1578;47.658;9.922;2023-04-24T07:17:08;9.10;98.00
3136;DHT22;1578;47.658;9.922;2023-04-24T07:19:34;9.20;96.20
3136;DHT22;1578;47.658;9.922;2023-04-24T07:22:00;9.30;95.50
3136;DHT22;1578;47.658;9.922;2023-04-24T07:24:26;9.50;92.80
3136;DHT22;1578;47.658;9.922;2023-04-24T07:26:53;9.50;93.30
3136;DHT22;1578;47.658;9.922;2023-04-24T07:29:19;9.60;92.30
3136;DHT22;1578;47.658;9.922;2023-04-24T07:31:46;9.50;93.90
3136;DHT22;1578;47.658;9.922;2023-04-24T07:34:12;9.60;92.60
3136;DHT22;1578;47.658;9.922;2023-04-24T07:36:37;9.80;91.70
3136;DHT22;1578;47.658;9.922;2023-04-24T07:39:06;9.70;94.00
3136;DHT22;1578;47.658;9.922;2023-04-24T07:41:31;9.80;90.50
3136;DHT22;1578;47.658;9.922;2023-04-24T07:43:58;9.70;87.40
3136;DHT22;1578;47.658;9.922;2023-04-24T07:46:23;9.70;91.30
3136;DHT22;1578;47.658;9.922;2023-04-24T07:48:50;9.80;89.40
3136;DHT22;1578;47.658;9.922;2023-04-24T07:51:16;9.90;92.10
3136;DHT22;1578;47.658;9.922;2023-04-24T07:53:43;9.90;94.50
3136;DHT22;1578;47.658;9.922;2023-04-24T07:56:09;9.80;87.10
3136;DHT22;1578;47.658;9.922;2023-04-24T07:58:35;9.70;92.00
3136;DHT22;1578;47.658;9.922;2023-04-24T08:01:01;9.90;90.70
3136;DHT22;1578;47.658;9.922;2023-04-24T08:03:26;10.10;90.80
3136;DHT22;1578;47.658;9.922;2023-04-24T08:05:52;10.00;88.90
3136;DHT22;1578;47.658;9.922;2023-04-24T08:08:19;9.90;91.50
3136;DHT22;1578;47.658;9.922;2023-04-24T08:10:45;9.90;90.60
3136;DHT22;1578;47.658;9.922;2023-04-24T08:13:11;9.70;87.10
3136;DHT22;1578;47.658;9.922;2023-04-24T08:15:39;9.70;86.30
3136;DHT22;1578;47.658;9.922;2023-04-24T08:18:04;9.80;88.40
3136;DHT22;1578;47.658;9.922;2023-04-24T08:20:30;9.90;92.20
3136;DHT22;1578;47.658;9.922;2023-04-24T08:22:56;10.00;78.70
3136;DHT22;1578;47.658;9.922;2023-04-24T08:25:22;10.10;91.60
3136;DHT22;1578;47.658;9.922;2023-04-24T08:27:48;10.30;79.40
3136;DHT22;1578;47.658;9.922;2023-04-24T08:30:14;10.60;84.30
3136;DHT22;1578;47.658;9.922;2023-04-24T08:32:40;10.70;86.30
3136;DHT22;1578;47.658;9.922;2023-04-24T08:35:06;10.90;78.90
3136;DHT22;1578;47.658;9.922;2023-04-24T08:37:34;11.00;81.80
3136;DHT22;1578;47.658;9.922;2023-04-24T08:40:01;11.30;71.60
3136;DHT22;1578;47.658;9.922;2023-04-24T08:42:28;11.50;78.10
3136;DHT22;1578;47.658;9.922;2023-04-24T08:44:54;11.40;73.30
3136;DHT22;1578;47.658;9.922;2023-04-24T08:47:20;11.50;68.40
3136;DHT22;1578;47.658;9.922;2023-04-24T08:49:48;11.60;67.10
3136;DHT22;1578;47.658;9.922;2023-04-24T08:52:15;12.00;69.80
3136;DHT22;1578;47.658;9.922;2023-04-24T08:54:41;12.10;61.30
3136;DHT22;1578;47.658;9.922;2023-04-24T08:57:09;11.90;52.70
3136;DHT22;1578;47.658;9.922;2023-04-24T08:59:38;11.90;55.00
3136;DHT22;1578;47.658;9.922;2023-04-24T09:02:04;12.10;48.50
3136;DHT22;1578;47.658;9.922;2023-04-24T09:04:30;12.30;57.90
3136;DHT22;1578;47.658;9.922;2023-04-24T09:06:58;12.20;51.50
3136;DHT22;1578;47.658;9.922;2023-04-24T09:09:25;12.20;48.90
3136;DHT22;1578;47.658;9.922;2023-04-24T09:11:52;12.70;59.80
3136;DHT22;1578;47.658;9.922;2023-04-24T09:14:19;12.40;46.50
3136;DHT22;1578;47.658;9.922;2023-04-24T09:16:46;12.00;53.70
3136;DHT22;1578;47.658;9.922;2023-04-24T09:19:12;11.30;66.30
3136;DHT22;1578;47.658;9.922;2023-04-24T09:21:38;10.40;72.20
3136;DHT22;1578;47.658;9.922;2023-04-24T09:24:09;9.60;79.30
3136;DHT22;1578;47.658;9.922;2023-04-24T09:26:40;9.20;78.60
3136;DHT22;1578;47.658;9.922;2023-04-24T09:29:05;9.20;88.70
3136;DHT22;1578;47.658;9.922;2023-04-24T09:31:33;8.90;75.40
3136;DHT22;1578;47.658;9.922;2023-04-24T09:34:03;8.80;84.60
3136;DHT22;1578;47.658;9.922;2023-04-24T09:36:39;8.80;85.40
3136;DHT22;1578;47.658;9.922;2023-04-24T09:39:11;8.90;76.40
3136;DHT22;1578;47.658;9.922;2023-04-24T09:41:54;8.90;81.20
3136;DHT22;1578;47.658;9.922;2023-04-24T09:44:24;8.60;73.00
3136;DHT22;1578;47.658;9.922;2023-04-24T09:49:24;8.30;62.10
3136;DHT22;1578;47.658;9.922;2023-04-24T09:51:50;8.30;72.90
3136;DHT22;1578;47.658;9.922;2023-04-24T09:54:18;8.40;68.40
3136;DHT22;1578;47.658;9.922;2023-04-24T09:56:46;8.60;68.50
3136;DHT22;1578;47.658;9.922;2023-04-24T09:59:17;8.80;79.20
3136;DHT22;1578;47.658;9.922;2023-04-24T10:01:43;9.00;83.90
3136;DHT22;1578;47.658;9.922;2023-04-24T10:04:20;9.20;78.70
3136;DHT22;1578;47.658;9.922;2023-04-24T10:06:48;9.30;77.50
3136;DHT22;1578;47.658;9.922;2023-04-24T10:09:15;9.30;69.20
3136;DHT22;1578;47.658;9.922;2023-04-24T10:11:46;9.20;73.40
3136;DHT22;1578;47.658;9.922;2023-04-24T10:14:16;9.00;83.30
3136;DHT22;1578;47.658;9.922;2023-04-24T10:16:44;9.30;86.60
3136;DHT22;1578;47.658;9.922;2023-04-24T10:19:13;9.40;80.50
3136;DHT22;1578;47.658;9.922;2023-04-24T10:21:42;9.30;89.00
3136;DHT22;1578;47.658;9.922;2023-04-24T10:24:12;9.40;77.90
3136;DHT22;1578;47.658;9.922;2023-04-24T10:26:40;9.50;84.50
3136;DHT22;1578;47.658;9.922;2023-04-24T10:29:06;9.60;84.30
3136;DHT22;1578;47.658;9.922;2023-04-24T10:31:36;9.80;75.10
3136;DHT22;1578;47.658;9.922;2023-04-24T10:34:04;10.00;77.80
3136;DHT22;1578;47.658;9.922;2023-04-24T10:36:31;10.10;65.10
3136;DHT22;1578;47.658;9.922;2023-04-24T10:39:01;10.10;72.50
3136;DHT22;1578;47.658;9.922;2023-04-24T10:41:27;10.00;77.50
3136;DHT22;1578;47.658;9.922;2023-04-24T10:44:11;10.20;74.40
3136;DHT22;1578;47.658;9.922;2023-04-24T10:46:38;10.40;62.20
3136;DHT22;1578;47.658;9.922;2023-04-24T10:49:05;10.30;62.30
3136;DHT22;1578;47.658;9.922;2023-04-24T10:52:03;10.60;67.00
3136;DHT22;1578;47.658;9.922;2023-04-24T10:54:45;10.90;58.60
3136;DHT22;1578;47.658;9.922;2023-04-24T10:59:43;10.90;51.30
3136;DHT22;1578;47.658;9.922;2023-04-24T11:02:09;10.80;54.20
3136;DHT22;1578;47.658;9.922;2023-04-24T11:04:35;10.80;50.50
3136;DHT22;1578;47.658;9.922;2023-04-24T11:07:04;10.80;60.00
3136;DHT22;1578;47.658;9.922;2023-04-24T11:09:31;10.70;58.50
3136;DHT22;1578;47.658;9.922;2023-04-24T11:17:34;11.10;47.40
3136;DHT22;1578;47.658;9.922;2023-04-24T11:20:10;11.20;56.30
3136;DHT22;1578;47.658;9.922;2023-04-24T11:22:39;11.40;47.90
3136;DHT22;1578;47.658;9.922;2023-04-24T11:25:06;11.30;52.90
3136;DHT22;1578;47.658;9.922;2023-04-24T11:27:39;11.50;47.10
3136;DHT22;1578;47.658;9.922;2023-04-24T11:30:06;11.30;47.70
3136;DHT22;1578;47.658;9.922;2023-04-24T11:32:37;11.10;47.30
3136;DHT22;1578;47.658;9.922;2023-04-24T11:37:48;11.10;50.10
3136;DHT22;1578;47.658;9.922;2023-04-24T11:40:16;10.90;54.30
3136;DHT22;1578;47.658;9.922;2023-04-24T11:42:43;11.10;50.30
3136;DHT22;1578;47.658;9.922;2023-04-24T11:45:11;11.80;64.10
3136;DHT22;1578;47.658;9.922;2023-04-24T11:47:37;12.90;33.20
3136;DHT22;1578;47.658;9.922;2023-04-24T11:50:08;13.40;49.90
3136;DHT22;1578;47.658;9.922;2023-04-24T11:52:42;12.90;42.50
3136;DHT22;1578;47.658;9.922;2023-04-24T11:57:43;13.40;40.10
3136;DHT22;1578;47.658;9.922;2023-04-24T12:00:32;12.90;33.30
3136;DHT22;1578;47.658;9.922;2023-04-24T12:03:10;12.10;46.40
3136;DHT22;1578;47.658;9.922;2023-04-24T12:05:36;12.20;33.40
3136;DHT22;1578;47.658;9.922;2023-04-24T12:08:02;12.60;29.70
3136;DHT22;1578;47.658;9.922;2023-04-24T12:10:31;12.60;23.80
3136;DHT22;1578;47.658;9.922;2023-04-24T12:12:58;12.30;25.70
3136;DHT22;1578;47.658;9.922;2023-04-24T12:15:24;12.20;27.50
3136;DHT22;1578;47.658;9.922;2023-04-24T12:17:52;11.80;31.30
3136;DHT22;1578;47.658;9.922;2023-04-24T12:20:27;11.90;28.50
3136;DHT22;1578;47.658;9.922;2023-04-24T12:22:56;12.20;24.50
3136;DHT22;1578;47.658;9.922;2023-04-24T12:25:27;12.70;25.50
3136;DHT22;1578;47.658;9.922;2023-04-24T12:30:30;12.20;32.40
3136;DHT22;1578;47.658;9.922;2023-04-24T12:33:00;12.70;25.10
3136;DHT22;1578;47.658;9.922;2023-04-24T12:35:31;12.60;27.20
3136;DHT22;1578;47.658;9.922;2023-04-24T12:38:13;13.20;19.30
3136;DHT22;1578;47.658;9.922;2023-04-24T12:40:41;14.40;23.20
3136;DHT22;1578;47.658;9.922;2023-04-24T12:43:19;14.30;19.80
3136;DHT22;1578;47.658;9.922;2023-04-24T12:45:47;14.40;16.90
3136;DHT22;1578;47.658;9.922;2023-04-24T12:48:12;14.20;19.30
3136;DHT22;1578;47.658;9.922;2023-04-24T12:50:41;13.70;18.70
3136;DHT22;1578;47.658;9.922;2023-04-24T12:53:08;12.70;26.00
3136;DHT22;1578;47.658;9.922;2023-04-24T12:55:35;12.80;21.80
3136;DHT22;1578;47.658;9.922;2023-04-24T12:58:01;12.70;19.20
3136;DHT22;1578;47.658;9.922;2023-04-24T13:00:28;12.70;22.00
3136;DHT22;1578;47.658;9.922;2023-04-24T13:02:54;12.50;20.90
3136;DHT22;1578;47.658;9.922;2023-04-24T13:05:20;12.60;25.90
3136;DHT22;1578;47.658;9.922;2023-04-24T13:07:45;12.60;23.80
3136;DHT22;1578;47.658;9.922;2023-04-24T13:10:11;12.70;19.80
3136;DHT22;1578;47.658;9.922;2023-04-24T13:12:38;12.80;21.90
3136;DHT22;1578;47.658;9.922;2023-04-24T13:15:05;12.70;22.50
3136;DHT22;1578;47.658;9.922;2023-04-24T13:17:31;13.00;15.40
3136;DHT22;1578;47.658;9.922;2023-04-24T13:19:56;13.20;16.70
3136;DHT22;1578;47.658;9.922;2023-04-24T13:22:22;12.70;15.30
3136;DHT22;1578;47.658;9.922;2023-04-24T13:24:47;12.30;21.10
3136;DHT22;1578;47.658;9.922;2023-04-24T13:27:17;12.20;19.00
3136;DHT22;1578;47.658;9.922;2023-04-24T13:29:42;12.10;21.60
3136;DHT22;1578;47.658;9.922;2023-04-24T13:32:09;12.20;18.30
3136;DHT22;1578;47.658;9.922;2023-04-24T13:34:34;12.40;18.10
3136;DHT22;1578;47.658;9.922;2023-04-24T13:37:01;12.60;16.10
3136;DHT22;1578;47.658;9.922;2023-04-24T13:39:26;12.80;16.10
3136;DHT22;1578;47.658;9.922;2023-04-24T13:41:53;13.00;17.40
3136;DHT22;1578;47.658;9.922;2023-04-24T13:44:19;13.30;15.50
3136;DHT22;1578;47.658;9.922;2023-04-24T13:46:47;13.20;13.70
3136;DHT22;1578;47.658;9.922;2023-04-24T13:49:13;13.10;13.90
3136;DHT22;1578;47.658;9.922;2023-04-24T13:51:40;12.60;13.50
3136;DHT22;1578;47.658;9.922;2023-04-24T13:54:06;12.80;16.10
3136;DHT22;1578;47.658;9.922;2023-04-24T13:56:31;12.60;13.20
3136;DHT22;1578;47.658;9.922;2023-04-24T13:58:57;12.20;13.00
3136;DHT22;1578;47.658;9.922;2023-04-24T14:01:23;12.00;16.20
3136;DHT22;1578;47.658;9.922;2023-04-24T14:03:54;11.90;18.60
3136;DHT22;1578;47.658;9.922;2023-04-24T14:06:21;12.00;15.30
3136;DHT22;1578;47.658;9.922;2023-04-24T14:08:47;11.90;15.50
3136;DHT22;1578;47.658;9.922;2023-04-24T14:11:13;12.00;13.90
3136;DHT22;1578;47.658;9.922;2023-04-24T14:13:41;12.00;15.00
3136;DHT22;1578;47.658;9.922;2023-04-24T14:16:06;12.00;14.20
3136;DHT22;1578;47.658;9.922;2023-04-24T14:18:32;12.10;15.90
3136;DHT22;1578;47.658;9.922;2023-04-24T14:20:58;12.40;15.00
3136;DHT22;1578;47.658;9.922;2023-04-24T14:23:24;12.40;13.70
3136;DHT22;1578;47.658;9.922;2023-04-24T14:25:49;12.60;12.40
3136;DHT22;1578;47.658;9.922;2023-04-24T14:28:18;12.80;19.80
3136;DHT22;1578;47.658;9.922;2023-04-24T14:30:44;13.40;14.70
3136;DHT22;1578;47.658;9.922;2023-04-24T14:33:10;13.50;10.40
3136;DHT22;1578;47.658;9.922;2023-04-24T14:35:37;13.60;14.90
3136;DHT22;1578;47.658;9.922;2023-04-24T14:38:03;13.50;9.60
3136;DHT22;1578;47.658;9.922;2023-04-24T14:40:28;13.30;8.60
3136;DHT22;1578;47.658;9.922;2023-04-24T14:42:54;13.20;9.40
3136;DHT22;1578;47.658;9.922;2023-04-24T14:45:20;13.10;13.10
3136;DHT22;1578;47.658;9.922;2023-04-24T14:47:46;13.30;10.20
3136;DHT22;1578;47.658;9.922;2023-04-24T14:50:12;13.40;8.20
3136;DHT22;1578;47.658;9.922;2023-04-24T14:52:38;13.00;8.30
3136;DHT22;1578;47.658;9.922;2023-04-24T14:55:04;12.90;9.40
3136;DHT22;1578;47.658;9.922;2023-04-24T14:57:30;13.10;8.20
3136;DHT22;1578;47.658;9.922;2023-04-24T14:59:56;13.20;10.80
3136;DHT22;1578;47.658;9.922;2023-04-24T15:02:22;13.30;10.20
3136;DHT22;1578;47.658;9.922;2023-04-24T15:04:48;13.10;9.60
3136;DHT22;1578;47.658;9.922;2023-04-24T15:07:14;12.80;9.00
3136;DHT22;1578;47.658;9.922;2023-04-24T15:09:39;12.70;11.90
3136;DHT22;1578;47.658;9.922;2023-04-24T15:12:05;12.50;8.20
3136;DHT22;1578;47.658;9.922;2023-04-24T15:14:31;12.50;13.40
3136;DHT22;1578;47.658;9.922;2023-04-24T15:16:56;12.40;9.60
3136;DHT22;1578;47.658;9.922;2023-04-24T15:19:22;12.60;14.00
3136;DHT22;1578;47.658;9.922;2023-04-24T15:21:48;12.90;11.70
3136;DHT22;1578;47.658;9.922;2023-04-24T15:24:14;13.10;10.80
3136;DHT22;1578;47.658;9.922;2023-04-24T15:26:39;13.20;9.60
3136;DHT22;1578;47.658;9.922;2023-04-24T15:29:05;13.20;11.90
3136;DHT22;1578;47.658;9.922;2023-04-24T15:31:31;13.20;9.00
3136;DHT22;1578;47.658;9.922;2023-04-24T15:33:56;13.20;8.70
3136;DHT22;1578;47.658;9.922;2023-04-24T15:36:22;13.10;9.40
3136;DHT22;1578;47.658;9.922;2023-04-24T15:38:47;12.80;12.80
3136;DHT22;1578;47.658;9.922;2023-04-24T15:41:13;12.70;10.30
3136;DHT22;1578;47.658;9.922;2023-04-24T15:43:39;12.80;12.60
3136;DHT22;1578;47.658;9.922;2023-04-24T15:46:07;13.00;9.20
3136;DHT22;1578;47.658;9.922;2023-04-24T15:48:32;13.00;10.00
3136;DHT22;1578;47.658;9.922;2023-04-24T15:50:59;13.00;11.70
3136;DHT22;1578;47.658;9.922;2023-04-24T15:53:26;12.90;7.10
3136;DHT22;1578;47.658;9.922;2023-04-24T15:55:54;13.00;13.10
3136;DHT22;1578;47.658;9.922;2023-04-24T15:58:21;13.00;9.90
3136;DHT22;1578;47.658;9.922;2023-04-24T16:00:48;13.00;11.90
3136;DHT22;1578;47.658;9.922;2023-04-24T16:03:13;12.60;9.50
3136;DHT22;1578;47.658;9.922;2023-04-24T16:05:39;12.40;10.80
3136;DHT22;1578;47.658;9.922;2023-04-24T16:08:05;12.30;9.60
3136;DHT22;1578;47.658;9.922;2023-04-24T16:10:31;12.10;10.10
3136;DHT22;1578;47.658;9.922;2023-04-24T16:12:57;11.90;11.40
3136;DHT22;1578;47.658;9.922;2023-04-24T16:15:22;11.80;17.00
3136;DHT22;1578;47.658;9.922;2023-04-24T16:17:49;11.90;14.30
3136;DHT22;1578;47.658;9.922;2023-04-24T16:20:15;11.90;12.10
3136;DHT22;1578;47.658;9.922;2023-04-24T16:22:41;11.80;14.70
3136;DHT22;1578;47.658;9.922;2023-04-24T16:25:07;11.80;12.80
3136;DHT22;1578;47.658;9.922;2023-04-24T16:27:33;11.70;14.90